• Join FlightAware (Why Join?)
  • Login
  • US Flag GB Flag 
08:01 EDT


 

Airport Tracker/Info


-or-


 

Live Flight TrackerFlight Track Log ✈ FLG3735 ✈ 30-Apr-2013 ✈ KDTW - KALB

Flight Track Log - Related Links

Times and Time Zones

All times are in EDT time to prevent confusion due to time zone crossing. See the FLG3735 flight status page for this flight to view local times or setup timezone preferences in your user account.

Time Position Orientation Groundspeed Altitude Reporting Facility
EDT Latitude Longitude Course Direction KTS MPH feet Rate Location/Type
21:36 42.1994 -83.3581 56° Northeast 155 178 1,400  Level Cleveland Center
21:37 42.1517 -83.3531 176° South 189 217 3,500 1,920 Climbing Cleveland Center
21:38 42.0875 -83.3308 166° South 269 310 5,500 2,100 Climbing Cleveland Center
21:39 42.3131 -82.7681 75° East  Level FlightAware Approximate
21:39 42.0875 -83.2442 90° East 288 331 7,800  Level Cleveland Center
21:40 42.3298 -82.6193 82° East  Level FlightAware Approximate
21:40 42.1194 -83.1250 70° East 313 360 10,400  Level Cleveland Center
21:41 42.3544 -82.4745 56° Northeast  Level FlightAware Approximate
21:41 42.1614 -83.0119 63° Northeast 319 367 11,400  Level Cleveland Center
21:42 42.2100 -82.8847 63° Northeast 343 395 12,500 1,320 Climbing Cleveland Center
21:43 42.2564 -82.7517 65° Northeast 367 422 14,100 1,740 Climbing Cleveland Center
21:44 42.3067 -82.6214 62° Northeast 381 438 16,000 1,620 Climbing Cleveland Center
21:45 42.3592 -82.4769 64° Northeast 381 438 17,400 1,200 Climbing Cleveland Center
21:46 42.3633 -82.3422 88° East 381 438 18,500 960 Climbing Cleveland Center
21:47 42.3553 -82.1847 94° East 392 451 19,400 900 Climbing Cleveland Center
21:48 42.3492 -82.0103 93° East 418 481 20,300 900 Climbing Cleveland Center
21:49 42.3428 -81.8472 93° East 432 497 21,200 780 Climbing Cleveland Center
21:50 42.3361 -81.6842 93° East 427 491 21,900 600 Climbing Cleveland Center
21:51 42.3292 -81.5211 93° East 427 491 22,500 540 Climbing Cleveland Center
21:52 42.3200 -81.3525 94° East 445 512 23,000 420 Climbing Cleveland Center
21:53 42.3106 -81.2008 95° East 453 521 23,400 420 Climbing Cleveland Center
21:54 42.3175 -81.0269 87° East 453 521 23,900 480 Climbing Cleveland Center
21:55 42.3328 -80.8556 83° East 454 522 24,400 540 Climbing Cleveland Center
21:56 42.3475 -80.6844 83° East 462 532 25,000 300 Climbing Cleveland Center
21:57 42.3644 -80.5158 82° East 462 532 25,000  Level Cleveland Center
21:58 42.3786 -80.3331 84° East 468 539 25,000  Level Cleveland Center
21:59 42.3969 -80.1389 83° East 468 539 25,000  Level Cleveland Center
22:00 42.4108 -79.9786 83° East 476 548 25,000  Level Cleveland Center
22:01 42.4242 -79.7983 84° East 476 548 25,000  Level Cleveland Center
22:02 42.4394 -79.6211 83° East 476 548 25,000  Level Cleveland Center
22:03 42.4525 -79.4436 84° East 476 548 25,000  Level Cleveland Center
22:04 42.4714 -79.2489 82° East 481 554 25,000  Level Cleveland Center
22:05 42.4817 -79.0686 86° East 481 554 25,000  Level Cleveland Center
22:06 42.4958 -78.8908 84° East 481 554 25,000  Level Cleveland Center
22:07 42.5097 -78.7100 84° East 481 554 25,000  Level Cleveland Center
22:08 42.5211 -78.5322 85° East 481 554 25,000  Level Cleveland Center
22:09 42.5325 -78.3544 85° East 481 554 25,000  Level Cleveland Center
22:10 42.5436 -78.1764 85° East 481 554 25,000  Level Cleveland Center
22:12 42.5669 -77.8203 85° East 476 548 25,000  Level Cleveland Center
22:13 42.5769 -77.6450 86° East 471 542 25,000  Level Cleveland Center
22:15 42.5939 -77.3653 85° East 484 557 25,000  Level Boston Center
22:16 42.6053 -77.1914 85° East 484 557 25,000  Level Boston Center
22:18 42.6225 -76.8736 86° East 473 544 25,000  Level Boston Center
22:19 42.6347 -76.6628 85° East 473 544 25,000  Level Boston Center
22:20 42.6431 -76.4853 86° East 468 539 25,000  Level Boston Center
22:21 42.6533 -76.3108 85° East 468 539 25,000 -240 Level Boston Center
22:22 42.6592 -76.1361 87° East 462 532 24,600 -900 Descending Boston Center
22:23 42.6689 -75.9644 86° East 462 532 23,300 -1,320 Descending Boston Center
22:24 42.6758 -75.7981 87° East 451 519 22,000 -1,320 Descending Boston Center
22:25 42.6850 -75.6292 86° East 451 519 20,700 -1,320 Descending Boston Center
22:26 42.6914 -75.4656 87° East 444 511 19,400 -1,320 Descending Boston Center
22:27 42.6978 -75.3078 87° East 432 497 18,100 -1,380 Descending Boston Center
22:28 42.7042 -75.1300 87° East 427 491 16,700 -1,440 Descending Boston Center
22:29 42.7097 -74.9747 87° East 422 486 15,300 -1,440 Descending Boston Center
22:30 42.7153 -74.8194 87° East 417 480 13,900 -1,380 Descending Boston Center
22:31 42.7219 -74.6925 86° East 400 460 12,800 -1,440 Descending Boston Center
22:31 42.7264 -74.5656 87° East 394 453 11,500 -1,380 Descending Boston Center
22:32 42.7253 -74.5203 92° East 393 452 11,200 -900 Descending Boston Center
22:32 42.7436 -74.4333 74° East 361 415 10,600 -840 Descending Boston Center
22:33 42.7522 -74.4108 62° Northeast 352 405 10,400 -1,320 Descending Boston Center
22:33 42.7828 -74.3269 64° Northeast 274 315 9,300 -1,500 Descending Boston Center
22:34 42.7917 -74.3047 61° Northeast 292 336 8,900 -1,740 Descending Boston Center
22:34 42.8197 -74.2347 61° Northeast 269 310 7,600 -1,620 Descending Boston Center
22:35 42.8242 -74.2206 67° East 274 315 7,300 -1,680 Descending Boston Center
22:36 42.8461 -74.1450 68° East 256 295 5,900 -1,800 Descending Boston Center
22:37 42.8517 -74.0517 85° East 244 281 4,200 -1,740 Descending Boston Center
22:38 42.8489 -73.9525 92° East 255 293 2,400 -1,800 Descending Boston Center